Time;durP1;ratioP1;P1;durP2;ratioP2;P2;SDS_P1;SDS_P2;PMS_P1;PMS_P2;Temp;Humidity;BMP_temperature;BMP_pressure;BME280_temperature;BME280_humidity;BME280_pressure;Samples;Min_cycle;Max_cycle;Signal;HPM_P1;HPM_P2
2021/07/25 00:02:16;;;;;;;27.73;15.10;;;21.30;99.90;;;;;;4824737;29;20540;-72
2021/07/25 00:04:41;;;;;;;26.65;14.23;;;21.20;99.90;;;;;;4824541;29;20046;-72
2021/07/25 00:07:07;;;;;;;22.67;14.20;;;21.20;99.90;;;;;;4824676;29;20111;-72
2021/07/25 00:09:33;;;;;;;27.27;15.25;;;21.30;99.90;;;;;;4824510;29;20125;-73
2021/07/25 00:11:58;;;;;;;29.17;16.88;;;21.30;99.90;;;;;;4823962;29;20030;-73
2021/07/25 00:14:24;;;;;;;25.10;15.90;;;21.30;99.90;;;;;;4824696;29;20114;-73
2021/07/25 00:16:50;;;;;;;23.00;16.02;;;21.30;99.90;;;;;;4823496;29;20030;-74
2021/07/25 00:19:15;;;;;;;29.50;17.95;;;21.30;99.90;;;;;;4824348;29;20055;-74
2021/07/25 00:21:41;;;;;;;31.52;17.80;;;21.30;99.90;;;;;;4824619;29;20038;-73
2021/07/25 00:24:06;;;;;;;27.70;17.63;;;21.30;99.90;;;;;;4824231;29;20220;-72
2021/07/25 00:26:37;;;;;;;32.95;20.35;;;21.30;99.90;;;;;;4824712;29;20343;-73
2021/07/25 00:29:05;;;;;;;34.20;18.85;;;21.20;99.90;;;;;;4824315;29;20038;-73
2021/07/25 00:31:32;;;;;;;30.17;19.33;;;21.20;99.90;;;;;;4824383;29;20118;-73
2021/07/25 00:33:58;;;;;;;32.33;20.60;;;21.30;99.90;;;;;;4824291;29;20474;-74
2021/07/25 00:36:23;;;;;;;34.15;21.33;;;21.30;99.90;;;;;;4824034;29;20031;-73
2021/07/25 00:38:49;;;;;;;38.30;22.42;;;21.30;99.90;;;;;;4825084;29;20019;-73
2021/07/25 00:41:16;;;;;;;37.58;22.27;;;21.20;99.90;;;;;;4824131;29;20657;-73
2021/07/25 00:43:45;;;;;;;40.30;20.58;;;21.20;99.90;;;;;;4822869;29;20118;-73
2021/07/25 00:46:15;;;;;;;35.65;21.73;;;21.20;99.90;;;;;;4823889;29;20086;-74
2021/07/25 00:48:41;;;;;;;31.63;20.58;;;21.20;99.90;;;;;;4823829;29;20034;-72
2021/07/25 00:51:07;;;;;;;40.78;22.48;;;21.20;99.90;;;;;;4823751;29;20099;-72
2021/07/25 00:53:34;;;;;;;34.95;21.52;;;21.20;99.90;;;;;;4824342;29;20038;-72
2021/07/25 00:56:03;;;;;;;35.35;20.60;;;21.10;99.90;;;;;;4823916;29;20414;-73
2021/07/25 00:58:28;;;;;;;39.67;23.05;;;21.20;99.90;;;;;;4823920;29;20034;-73
2021/07/25 01:00:54;;;;;;;34.72;21.90;;;21.20;99.90;;;;;;4823670;29;20093;-73
2021/07/25 01:03:28;;;;;;;37.78;22.83;;;21.10;99.90;;;;;;4823377;29;20537;-72
2021/07/25 01:06:00;;;;;;;35.28;23.20;;;21.10;99.90;;;;;;4824177;29;20022;-73
2021/07/25 01:09:01;;;;;;;36.83;23.98;;;21.10;99.90;;;;;;4823879;29;20030;-73
2021/07/25 01:11:38;;;;;;;36.15;22.08;;;21.00;99.90;;;;;;4823705;29;20038;-73
2021/07/25 01:14:04;;;;;;;36.92;24.00;;;21.10;99.90;;;;;;4807688;29;20508;-73
2021/07/25 01:16:32;;;;;;;47.67;26.17;;;21.00;99.90;;;;;;4823465;29;20038;-73
2021/07/25 01:18:58;;;;;;;42.13;27.23;;;21.00;99.90;;;;;;4823551;29;20046;-71
2021/07/25 01:21:24;;;;;;;44.50;28.55;;;21.00;99.90;;;;;;4823467;29;20042;-71
2021/07/25 01:23:50;;;;;;;43.03;27.83;;;21.00;99.90;;;;;;4807854;29;20038;-73
2021/07/25 01:26:26;;;;;;;46.35;28.10;;;21.00;99.90;;;;;;4823892;29;20099;-70
2021/07/25 01:28:53;;;;;;;48.00;30.02;;;21.00;99.90;;;;;;4822770;29;20035;-72
2021/07/25 01:31:38;;;;;;;48.50;31.07;;;20.90;99.90;;;;;;4823413;29;20085;-71
2021/07/25 01:34:05;;;;;;;47.55;30.25;;;21.00;99.90;;;;;;4823333;29;20054;-71
2021/07/25 01:36:32;;;;;;;51.30;31.50;;;20.90;99.90;;;;;;4848912;29;20062;-71
2021/07/25 01:38:58;;;;;;;51.17;31.55;;;20.90;99.90;;;;;;4860441;29;20456;-73
2021/07/25 01:41:23;;;;;;;59.75;33.42;;;21.00;99.90;;;;;;4859960;29;20036;-72
2021/07/25 01:43:51;;;;;;;50.05;31.67;;;20.90;99.90;;;;;;4859825;29;20041;-73
2021/07/25 01:46:17;;;;;;;51.45;32.45;;;20.90;99.90;;;;;;4859989;29;20038;-73
2021/07/25 01:48:43;;;;;;;53.20;33.00;;;20.80;99.90;;;;;;4859606;29;20476;-72
2021/07/25 01:51:11;;;;;;;49.38;31.83;;;20.90;99.90;;;;;;4859729;29;20113;-72
2021/07/25 01:53:36;;;;;;;50.75;32.75;;;20.90;99.90;;;;;;4843843;29;20055;-71
2021/07/25 01:56:02;;;;;;;55.83;33.00;;;20.90;99.90;;;;;;4842948;29;20540;-72
2021/07/25 01:58:28;;;;;;;51.13;32.35;;;20.90;99.90;;;;;;4843340;29;20060;-72
2021/07/25 02:00:54;;;;;;;58.47;32.47;;;20.90;99.90;;;;;;4859841;29;20041;-73
2021/07/25 02:03:28;;;;;;;49.88;31.13;;;20.80;99.90;;;;;;4859139;29;20063;-72
2021/07/25 02:05:54;;;;;;;54.90;31.33;;;20.80;99.90;;;;;;4843611;29;20026;-72
2021/07/25 02:08:20;;;;;;;52.88;32.65;;;20.80;99.90;;;;;;4859296;29;20472;-71
2021/07/25 02:10:50;;;;;;;49.67;32.72;;;20.80;99.90;;;;;;4859394;29;20053;-72
2021/07/25 02:13:18;;;;;;;49.45;30.50;;;20.80;99.90;;;;;;4859453;29;20038;-72
2021/07/25 02:15:44;;;;;;;49.58;31.95;;;20.80;99.90;;;;;;4859445;29;20105;-72
2021/07/25 02:18:10;;;;;;;50.92;31.98;;;20.80;99.90;;;;;;4859086;29;20029;-72
2021/07/25 02:20:36;;;;;;;50.92;32.70;;;20.80;99.90;;;;;;4859753;29;20108;-72
2021/07/25 02:23:03;;;;;;;52.47;31.40;;;20.70;99.90;;;;;;4859452;29;20516;-73
2021/07/25 02:25:28;;;;;;;47.25;30.55;;;20.70;99.90;;;;;;4842854;29;20042;-73
2021/07/25 02:27:54;;;;;;;50.75;30.73;;;20.80;99.90;;;;;;4859306;29;20453;-73
2021/07/25 02:30:19;;;;;;;51.92;31.55;;;20.60;99.90;;;;;;4858905;29;20101;-73
2021/07/25 02:32:45;;;;;;;44.88;30.75;;;20.60;99.90;;;;;;4859492;29;20108;-72
2021/07/25 02:35:11;;;;;;;48.20;31.80;;;20.60;99.90;;;;;;4859016;29;20778;-72
2021/07/25 02:37:36;;;;;;;44.45;29.98;;;20.50;99.90;;;;;;4859096;29;20034;-71
2021/07/25 02:40:03;;;;;;;54.40;33.78;;;20.50;99.90;;;;;;4858931;29;20037;-73
2021/07/25 02:42:29;;;;;;;51.85;31.83;;;20.50;99.90;;;;;;4858855;29;20036;-73
2021/07/25 02:44:55;;;;;;;59.95;32.28;;;20.50;99.90;;;;;;4859569;29;20124;-72
2021/07/25 02:47:20;;;;;;;50.30;31.60;;;20.40;99.90;;;;;;4858986;29;20121;-73
2021/07/25 02:49:46;;;;;;;53.25;31.75;;;20.40;99.90;;;;;;4858976;29;20053;-73
2021/07/25 02:52:11;;;;;;;44.92;29.02;;;20.30;99.90;;;;;;4859032;29;20045;-71
2021/07/25 02:54:37;;;;;;;54.10;30.30;;;20.30;99.90;;;;;;4858819;29;20048;-73
2021/07/25 02:57:03;;;;;;;44.63;29.95;;;20.30;99.90;;;;;;4859200;29;20037;-71
2021/07/25 02:59:30;;;;;;;47.00;30.55;;;20.20;99.90;;;;;;4858741;29;20060;-71
2021/07/25 03:01:56;;;;;;;52.63;31.87;;;20.20;99.90;;;;;;4858314;29;20037;-72
2021/07/25 03:04:22;;;;;;;45.53;31.45;;;20.20;99.90;;;;;;4858498;29;20064;-72
2021/07/25 03:06:48;;;;;;;56.10;32.90;;;20.10;99.90;;;;;;4857898;29;20041;-74
2021/07/25 03:09:13;;;;;;;49.10;31.83;;;20.10;99.90;;;;;;4858536;29;20034;-71
2021/07/25 03:11:39;;;;;;;48.28;32.10;;;20.00;99.90;;;;;;4842771;29;20385;-72
2021/07/25 03:14:06;;;;;;;53.70;32.83;;;20.10;99.90;;;;;;4858421;29;20037;-73
2021/07/25 03:16:32;;;;;;;55.13;32.17;;;20.10;99.90;;;;;;4858358;29;20601;-73
2021/07/25 03:18:58;;;;;;;53.50;33.55;;;20.10;99.90;;;;;;4858405;29;20033;-72
2021/07/25 03:21:24;;;;;;;53.47;33.13;;;20.10;99.90;;;;;;4858387;29;20492;-72
2021/07/25 03:23:50;;;;;;;56.50;33.17;;;20.10;99.90;;;;;;4858880;29;20038;-71
2021/07/25 03:26:15;;;;;;;53.80;31.35;;;20.00;99.90;;;;;;4858396;29;20029;-72
2021/07/25 03:28:41;;;;;;;53.42;31.88;;;20.00;99.90;;;;;;4858628;29;20038;-72
2021/07/25 03:31:07;;;;;;;48.67;31.55;;;20.00;99.90;;;;;;4858374;29;20520;-73
2021/07/25 03:33:32;;;;;;;51.55;31.77;;;20.00;99.90;;;;;;4858425;29;20178;-73
2021/07/25 03:36:00;;;;;;;50.65;29.73;;;20.00;99.90;;;;;;4858789;29;20465;-71
2021/07/25 03:38:26;;;;;;;52.20;32.85;;;20.00;99.90;;;;;;4842109;29;20082;-73
2021/07/25 03:40:53;;;;;;;50.50;31.30;;;20.10;99.90;;;;;;4858520;29;20500;-73
2021/07/25 03:43:18;;;;;;;54.83;31.02;;;20.00;99.90;;;;;;4858161;29;20042;-73
2021/07/25 03:45:46;;;;;;;48.92;30.98;;;20.00;99.90;;;;;;4858071;29;20190;-71
2021/07/25 03:48:12;;;;;;;50.88;31.05;;;20.00;99.90;;;;;;4858114;29;20120;-72
2021/07/25 03:50:40;;;;;;;51.38;30.48;;;20.00;99.90;;;;;;4858833;29;20461;-72
2021/07/25 03:53:07;;;;;;;51.83;30.88;;;19.90;99.90;;;;;;4858437;29;20064;-73
2021/07/25 03:55:34;;;;;;;51.67;31.35;;;19.90;99.90;;;;;;4858455;29;20060;-71
2021/07/25 03:57:59;;;;;;;48.85;29.40;;;19.90;99.90;;;;;;4858375;29;20409;-71
2021/07/25 04:00:25;;;;;;;45.72;29.33;;;19.80;99.90;;;;;;4858194;29;20645;-71
2021/07/25 04:02:51;;;;;;;50.20;30.45;;;19.70;99.90;;;;;;4841972;29;20445;-72
2021/07/25 04:05:16;;;;;;;49.05;31.10;;;19.60;99.90;;;;;;4858158;29;20029;-72
2021/07/25 04:07:42;;;;;;;52.92;32.33;;;19.60;99.90;;;;;;4858219;29;20113;-73
2021/07/25 04:10:08;;;;;;;49.25;30.17;;;19.60;99.90;;;;;;4858065;29;20460;-72
2021/07/25 04:12:33;;;;;;;48.15;30.13;;;19.60;99.90;;;;;;4858045;29;20041;-73
2021/07/25 04:15:01;;;;;;;49.70;30.70;;;19.60;99.90;;;;;;4858962;29;20033;-72
2021/07/25 04:17:26;;;;;;;45.25;29.65;;;19.60;99.90;;;;;;4858384;29;20038;-72
2021/07/25 04:19:52;;;;;;;45.17;29.45;;;19.70;99.90;;;;;;4861500;29;20506;-73
2021/07/25 04:22:17;;;;;;;46.97;29.35;;;19.60;99.90;;;;;;4861219;29;20151;-73
2021/07/25 04:24:43;;;;;;;45.15;28.88;;;19.60;99.90;;;;;;4861215;29;20069;-73
2021/07/25 04:27:09;;;;;;;48.88;29.88;;;19.60;99.90;;;;;;4845155;29;20342;-73
2021/07/25 04:29:35;;;;;;;47.45;28.02;;;19.60;99.90;;;;;;4861679;29;20080;-73
2021/07/25 04:32:01;;;;;;;47.15;28.80;;;19.60;99.90;;;;;;4861195;29;20033;-72
2021/07/25 04:34:27;;;;;;;45.00;27.38;;;19.60;99.90;;;;;;4861205;29;20681;-73
2021/07/25 04:36:53;;;;;;;49.13;29.65;;;19.70;99.90;;;;;;4861141;29;20519;-73
2021/07/25 04:39:19;;;;;;;48.47;31.30;;;19.70;99.90;;;;;;4861152;29;20029;-73
2021/07/25 04:41:50;;;;;;;47.97;30.27;;;19.70;99.90;;;;;;4862006;29;20090;-72
2021/07/25 04:44:23;;;;;;;43.95;28.10;;;19.70;99.90;;;;;;4861134;29;20033;-73
2021/07/25 04:46:57;;;;;;;45.28;29.65;;;19.60;99.90;;;;;;4844821;29;20153;-73
2021/07/25 04:49:33;;;;;;;48.60;29.27;;;19.60;99.90;;;;;;4860740;29;20467;-72
2021/07/25 04:51:59;;;;;;;46.40;28.48;;;19.60;99.90;;;;;;4860687;29;20042;-73
2021/07/25 04:54:27;;;;;;;50.40;29.65;;;19.60;99.90;;;;;;4860908;29;20060;-74
2021/07/25 04:57:02;;;;;;;49.08;28.58;;;19.70;99.90;;;;;;4861153;29;20035;-72
2021/07/25 04:59:34;;;;;;;48.75;29.88;;;19.70;99.90;;;;;;4860761;29;20046;-73
2021/07/25 05:02:04;;;;;;;49.33;29.20;;;19.70;99.90;;;;;;4844092;29;20181;-72
2021/07/25 05:04:30;;;;;;;45.08;28.05;;;19.60;99.90;;;;;;4860368;29;20381;-72
2021/07/25 05:06:57;;;;;;;45.97;28.30;;;19.60;99.90;;;;;;4860516;29;20034;-74
2021/07/25 05:09:23;;;;;;;49.83;29.55;;;19.70;99.90;;;;;;4860451;29;20646;-73
2021/07/25 05:12:10;;;;;;;41.55;27.83;;;19.70;99.90;;;;;;4844643;29;20113;-73
2021/07/25 05:14:39;;;;;;;51.58;28.35;;;19.80;99.90;;;;;;4861021;29;20092;-73
2021/07/25 05:17:24;;;;;;;42.97;27.58;;;19.80;99.90;;;;;;4860304;29;20488;-75
2021/07/25 05:20:06;;;;;;;41.45;25.65;;;19.80;99.90;;;;;;4860546;29;20085;-72
2021/07/25 05:22:46;;;;;;;42.72;26.80;;;19.90;99.90;;;;;;4860399;29;20034;-73
2021/07/25 05:25:15;;;;;;;45.13;25.77;;;19.90;99.90;;;;;;4860254;29;20041;-72
2021/07/25 05:27:43;;;;;;;43.50;26.95;;;20.00;99.90;;;;;;4860199;29;20037;-72
2021/07/25 05:30:09;;;;;;;;;;;20.00;99.90;;;;;;4859624;29;20109;-73
2021/07/25 05:32:35;;;;;;;46.92;26.23;;;19.90;99.90;;;;;;4860393;29;19934;-71
2021/07/25 05:35:01;;;;;;;39.25;25.52;;;19.90;99.90;;;;;;4859992;29;20452;-72
2021/07/25 05:37:26;;;;;;;44.72;25.85;;;19.90;99.90;;;;;;4860214;29;20041;-72
2021/07/25 05:39:52;;;;;;;43.17;24.60;;;20.00;99.90;;;;;;4860041;29;20064;-71
2021/07/25 05:42:17;;;;;;;40.17;25.20;;;20.10;99.90;;;;;;4860137;29;20061;-72
2021/07/25 05:44:43;;;;;;;50.95;26.70;;;20.10;99.90;;;;;;4843860;29;20120;-71
2021/07/25 05:47:09;;;;;;;40.22;24.58;;;20.10;99.90;;;;;;4859858;29;20102;-73
2021/07/25 05:49:34;;;;;;;47.10;24.25;;;20.10;99.90;;;;;;4859735;29;20033;-73
2021/07/25 05:52:00;;;;;;;41.47;25.00;;;20.20;99.90;;;;;;4843557;29;20045;-72
2021/07/25 05:54:25;;;;;;;39.90;23.85;;;20.20;99.90;;;;;;4859643;29;20086;-73
2021/07/25 05:56:51;;;;;;;42.65;24.58;;;20.30;99.90;;;;;;4844040;29;20529;-72
2021/07/25 05:59:16;;;;;;;35.72;21.67;;;20.30;99.90;;;;;;4859741;29;20443;-73
2021/07/25 06:01:43;;;;;;;45.50;24.30;;;20.30;99.90;;;;;;4859578;29;20449;-73
2021/07/25 06:04:09;;;;;;;42.03;23.00;;;20.30;99.90;;;;;;4859604;29;20060;-72
2021/07/25 06:06:34;;;;;;;33.50;21.88;;;20.50;99.90;;;;;;4859472;29;20041;-72
2021/07/25 06:09:03;;;;;;;37.88;22.13;;;20.50;99.90;;;;;;4859760;29;20029;-74
2021/07/25 06:11:28;;;;;;;36.40;22.33;;;20.70;99.90;;;;;;4859419;29;20127;-73
2021/07/25 06:13:54;;;;;;;35.53;23.08;;;20.80;99.90;;;;;;4859376;29;20623;-71
2021/07/25 06:16:20;;;;;;;37.88;22.10;;;20.80;99.90;;;;;;4859519;29;20030;-73
2021/07/25 06:18:47;;;;;;;29.83;19.00;;;20.80;99.90;;;;;;4859258;29;20345;-73
2021/07/25 06:21:14;;;;;;;;;;;20.90;99.90;;;;;;4859776;29;20026;-72
2021/07/25 06:23:39;;;;;;;32.03;19.33;;;21.00;99.90;;;;;;4859756;29;19918;-74
2021/07/25 06:26:05;;;;;;;32.00;18.58;;;21.00;99.90;;;;;;4859348;29;20033;-72
2021/07/25 06:28:30;;;;;;;32.00;17.67;;;21.10;99.90;;;;;;4859502;29;20372;-72
2021/07/25 06:30:56;;;;;;;29.55;18.52;;;21.10;99.90;;;;;;4859487;29;20124;-73
2021/07/25 06:33:21;;;;;;;29.27;17.52;;;21.10;99.90;;;;;;4859192;29;20116;-75
2021/07/25 06:35:47;;;;;;;26.83;17.55;;;21.10;99.90;;;;;;4859795;29;20037;-74
2021/07/25 06:38:15;;;;;;;30.77;15.70;;;21.10;99.90;;;;;;4859105;29;20033;-73
2021/07/25 06:40:43;;;;;;;29.40;16.40;;;21.20;99.90;;;;;;4859112;29;20062;-73
2021/07/25 06:43:09;;;;;;;29.48;15.43;;;21.20;99.90;;;;;;4842512;29;20376;-74
2021/07/25 06:45:35;;;;;;;27.35;16.33;;;21.20;99.90;;;;;;4858810;29;20456;-71
2021/07/25 06:48:01;;;;;;;23.08;15.57;;;21.20;99.90;;;;;;4859245;29;20472;-74
2021/07/25 06:50:30;;;;;;;28.83;15.30;;;21.30;99.90;;;;;;4858809;29;20038;-72
2021/07/25 06:52:57;;;;;;;25.10;16.25;;;21.30;99.90;;;;;;4858851;29;20099;-73
2021/07/25 06:55:28;;;;;;;25.20;15.20;;;21.40;99.90;;;;;;4858783;29;20026;-73
2021/07/25 06:57:53;;;;;;;22.65;14.60;;;21.40;99.90;;;;;;4858783;29;20137;-72
2021/07/25 07:00:19;;;;;;;24.02;14.38;;;21.40;99.90;;;;;;4858621;29;20108;-71
2021/07/25 07:02:51;;;;;;;26.35;15.13;;;21.40;99.90;;;;;;4858921;29;20580;-73
2021/07/25 07:05:19;;;;;;;27.20;14.70;;;21.50;99.90;;;;;;4858607;29;20114;-73
2021/07/25 07:07:46;;;;;;;30.15;15.52;;;21.60;99.90;;;;;;4858591;29;20041;-72
2021/07/25 07:10:12;;;;;;;26.02;14.55;;;21.60;99.90;;;;;;4858477;29;20045;-72
2021/07/25 07:12:37;;;;;;;23.23;14.98;;;21.70;99.90;;;;;;4858705;29;20053;-73
2021/07/25 07:15:05;;;;;;;26.27;14.57;;;21.70;99.90;;;;;;4858824;29;20026;-72
2021/07/25 07:17:31;;;;;;;;;;;21.80;99.90;;;;;;4858988;29;20640;-75
2021/07/25 07:19:57;;;;;;;23.50;14.50;;;21.90;99.90;;;;;;4858531;29;19916;-72
2021/07/25 07:22:27;;;;;;;23.38;12.60;;;22.00;99.90;;;;;;4841947;29;20049;-72
2021/07/25 07:24:54;;;;;;;28.13;14.15;;;22.00;99.90;;;;;;4858434;29;20129;-72
2021/07/25 07:27:20;;;;;;;22.52;14.45;;;22.10;99.60;;;;;;4858273;29;20112;-72
2021/07/25 07:29:46;;;;;;;28.83;14.18;;;22.20;99.70;;;;;;4858777;29;20018;-71
2021/07/25 07:32:11;;;;;;;22.13;13.63;;;22.20;99.50;;;;;;4858406;29;20060;-73
2021/07/25 07:34:37;;;;;;;24.52;14.70;;;22.30;99.40;;;;;;4858296;29;20117;-72
2021/07/25 07:37:04;;;;;;;24.10;14.50;;;22.30;99.30;;;;;;4858336;29;20037;-72
2021/07/25 07:39:30;;;;;;;22.40;13.60;;;22.40;99.30;;;;;;4858315;29;20356;-72
2021/07/25 07:41:55;;;;;;;24.35;12.80;;;22.50;98.60;;;;;;4858546;29;20120;-73
2021/07/25 07:44:21;;;;;;;21.52;13.70;;;22.50;98.70;;;;;;4841738;29;20078;-72
2021/07/25 07:46:46;;;;;;;24.38;13.65;;;22.60;98.70;;;;;;4858308;29;20132;-72
2021/07/25 07:49:12;;;;;;;31.52;13.38;;;22.60;98.80;;;;;;4857858;29;20059;-72
2021/07/25 07:51:38;;;;;;;28.23;14.15;;;22.70;98.80;;;;;;4858131;29;20067;-72
2021/07/25 07:54:04;;;;;;;24.10;13.35;;;23.00;98.80;;;;;;4861462;29;20057;-71
2021/07/25 07:56:31;;;;;;;25.63;13.43;;;23.40;98.70;;;;;;4862444;29;20541;-73
2021/07/25 07:58:57;;;;;;;21.47;13.00;;;23.80;98.40;;;;;;4844943;29;20061;-73
2021/07/25 08:01:22;;;;;;;21.23;13.00;;;23.90;97.50;;;;;;4861481;29;20292;-73
2021/07/25 08:03:48;;;;;;;29.88;13.07;;;24.00;97.40;;;;;;4861104;29;20110;-72
2021/07/25 08:06:14;;;;;;;22.00;12.68;;;24.10;96.90;;;;;;4845120;29;20372;-74
2021/07/25 08:08:39;;;;;;;20.25;13.43;;;24.20;96.60;;;;;;4862089;29;20061;-74
2021/07/25 08:11:05;;;;;;;24.38;13.20;;;24.20;96.80;;;;;;4861472;29;20045;-74
2021/07/25 08:13:30;;;;;;;17.95;12.38;;;24.40;96.60;;;;;;4861246;29;20036;-74
2021/07/25 08:15:56;;;;;;;25.85;13.00;;;24.60;96.50;;;;;;4861473;29;20030;-73
2021/07/25 08:18:21;;;;;;;18.67;12.82;;;24.80;96.00;;;;;;4861402;29;20109;-73
2021/07/25 08:20:47;;;;;;;18.15;11.35;;;25.10;96.10;;;;;;4861897;29;20036;-73
2021/07/25 08:23:13;;;;;;;18.73;11.10;;;25.30;95.60;;;;;;4845006;29;20426;-73
2021/07/25 08:25:38;;;;;;;21.45;11.43;;;25.50;95.10;;;;;;4861476;29;20048;-74
2021/07/25 08:28:04;;;;;;;18.65;11.23;;;25.70;94.30;;;;;;4861288;29;20033;-72
2021/07/25 08:30:31;;;;;;;16.88;11.05;;;26.30;94.20;;;;;;4861225;29;20097;-74
2021/07/25 08:32:56;;;;;;;16.77;11.07;;;26.90;93.50;;;;;;4861913;29;20057;-73
2021/07/25 08:35:22;;;;;;;17.38;10.95;;;27.80;91.70;;;;;;4861134;29;20050;-72
2021/07/25 08:37:48;;;;;;;19.25;10.57;;;28.20;90.60;;;;;;4860900;29;20049;-73
2021/07/25 08:40:15;;;;;;;17.80;10.48;;;28.40;89.60;;;;;;4861032;29;20037;-74
2021/07/25 08:42:49;;;;;;;14.60;10.43;;;28.60;90.20;;;;;;4861149;29;20171;-72
2021/07/25 08:45:16;;;;;;;18.17;9.90;;;28.70;89.20;;;;;;4860544;29;20038;-74
2021/07/25 08:47:42;;;;;;;17.90;9.80;;;28.90;88.40;;;;;;4861528;29;20041;-73
2021/07/25 08:50:15;;;;;;;13.60;10.27;;;29.50;87.90;;;;;;4860913;29;20104;-72
2021/07/25 08:52:49;;;;;;;13.07;8.65;;;30.50;85.40;;;;;;4860818;29;20025;-73
2021/07/25 08:55:19;;;;;;;17.55;11.00;;;31.10;82.30;;;;;;4861032;29;20038;-71
2021/07/25 08:57:47;;;;;;;15.77;9.93;;;30.70;79.30;;;;;;4860732;29;20041;-73
2021/07/25 09:00:15;;;;;;;13.45;10.48;;;31.20;80.60;;;;;;4860602;29;20507;-73
2021/07/25 09:02:42;;;;;;;13.82;9.07;;;31.90;78.30;;;;;;4860914;29;20045;-73
2021/07/25 09:05:10;;;;;;;13.70;9.82;;;32.40;78.10;;;;;;4859526;29;20049;-73
2021/07/25 09:07:39;;;;;;;11.25;9.00;;;32.40;75.90;;;;;;4860519;29;20080;-72
2021/07/25 09:10:08;;;;;;;15.80;9.13;;;32.80;73.30;;;;;;4860361;29;20379;-72
2021/07/25 09:12:35;;;;;;;10.38;8.50;;;33.30;72.00;;;;;;4860329;29;20124;-73
2021/07/25 09:15:06;;;;;;;15.43;8.63;;;33.80;71.10;;;;;;4860979;29;20025;-73
2021/07/25 09:17:32;;;;;;;16.42;8.45;;;33.80;68.60;;;;;;4860500;29;20041;-73
2021/07/25 09:20:16;;;;;;;11.82;8.82;;;34.30;68.50;;;;;;4860301;29;20350;-72
2021/07/25 09:22:48;;;;;;;14.35;8.65;;;34.40;67.10;;;;;;4843935;29;20106;-72
2021/07/25 09:25:20;;;;;;;11.52;8.63;;;34.40;64.00;;;;;;4860074;29;20046;-72
2021/07/25 09:28:06;;;;;;;12.32;8.32;;;34.30;63.10;;;;;;4860255;29;20038;-71
2021/07/25 09:30:31;;;;;;;12.25;9.48;;;33.30;63.10;;;;;;4859883;29;20038;-71
2021/07/25 09:32:57;;;;;;;11.95;8.48;;;33.00;64.90;;;;;;4860573;29;20044;-72
2021/07/25 09:35:27;;;;;;;13.85;8.77;;;32.60;64.50;;;;;;4860098;29;20469;-72
2021/07/25 09:38:08;;;;;;;12.80;8.02;;;32.10;65.30;;;;;;4859796;29;20041;-72
2021/07/25 09:40:40;;;;;;;11.32;8.00;;;32.10;67.70;;;;;;4843545;29;20040;-72
2021/07/25 09:43:08;;;;;;;11.82;9.32;;;31.90;67.30;;;;;;4859695;29;20133;-72
2021/07/25 09:45:57;;;;;;;11.38;8.50;;;31.50;68.90;;;;;;4859706;29;20499;-73
2021/07/25 09:48:28;;;;;;;15.70;8.57;;;31.00;68.90;;;;;;4859685;29;20048;-72
2021/07/25 09:50:57;;;;;;;11.27;8.38;;;30.60;70.00;;;;;;4860387;29;20113;-71
2021/07/25 09:53:22;;;;;;;11.60;8.90;;;30.10;71.50;;;;;;4859617;29;20049;-71
2021/07/25 09:55:49;;;;;;;13.02;8.52;;;29.70;72.90;;;;;;4859763;29;20412;-72
2021/07/25 09:58:15;;;;;;;12.93;8.85;;;29.30;73.30;;;;;;4859585;29;20120;-73
2021/07/25 10:00:46;;;;;;;13.70;8.82;;;28.80;74.40;;;;;;4859524;29;20120;-72
2021/07/25 10:03:18;;;;;;;11.57;8.40;;;28.50;75.30;;;;;;4859064;29;20054;-72
2021/07/25 10:05:44;;;;;;;15.18;8.68;;;28.30;76.20;;;;;;4860033;29;20021;-72
2021/07/25 10:08:18;;;;;;;15.43;8.35;;;28.20;76.10;;;;;;4859406;29;20029;-73
2021/07/25 10:10:48;;;;;;;13.32;8.80;;;28.10;76.60;;;;;;4859254;29;20387;-72
2021/07/25 10:13:18;;;;;;;12.85;9.50;;;27.80;77.80;;;;;;4859450;29;20045;-72
2021/07/25 10:15:55;;;;;;;12.75;8.23;;;27.60;78.50;;;;;;4858909;29;20127;-72
2021/07/25 10:18:21;;;;;;;17.23;9.18;;;27.60;78.90;;;;;;4859354;29;20153;-71
2021/07/25 10:20:49;;;;;;;15.15;9.52;;;27.60;79.80;;;;;;4859506;29;20401;-73
2021/07/25 10:23:17;;;;;;;11.95;8.63;;;27.70;79.90;;;;;;4859241;29;20037;-72
2021/07/25 10:25:50;;;;;;;14.15;8.48;;;27.90;79.60;;;;;;4859296;29;20156;-72
2021/07/25 10:28:18;;;;;;;12.15;8.23;;;27.90;78.70;;;;;;4858951;29;20450;-72
2021/07/25 10:30:46;;;;;;;13.63;8.40;;;28.00;77.40;;;;;;4858934;29;20286;-72
2021/07/25 10:33:15;;;;;;;12.27;8.43;;;28.00;76.90;;;;;;4858980;29;20232;-73
2021/07/25 10:35:42;;;;;;;11.05;8.25;;;28.00;77.40;;;;;;4859484;29;20026;-72
2021/07/25 10:38:08;;;;;;;11.75;7.53;;;28.00;76.90;;;;;;4859330;29;20365;-72
2021/07/25 10:40:35;;;;;;;11.48;7.05;;;28.10;76.70;;;;;;4858821;29;20026;-72
2021/07/25 10:43:01;;;;;;;9.88;7.50;;;28.40;78.00;;;;;;4859021;29;20037;-74
2021/07/25 10:45:27;;;;;;;10.65;7.28;;;28.60;77.00;;;;;;4858604;29;20045;-74
2021/07/25 10:48:11;;;;;;;10.68;8.07;;;28.80;75.90;;;;;;4859088;29;20081;-73
2021/07/25 10:50:37;;;;;;;11.82;7.45;;;28.80;74.50;;;;;;4858627;29;20084;-74
2021/07/25 10:53:03;;;;;;;11.50;6.85;;;28.70;75.30;;;;;;4858797;29;20422;-72
2021/07/25 10:55:34;;;;;;;10.65;7.07;;;28.70;75.20;;;;;;4858608;29;20099;-72
2021/07/25 10:58:05;;;;;;;14.45;7.15;;;28.70;74.80;;;;;;4858773;29;20657;-72
2021/07/25 11:00:54;;;;;;;9.70;7.13;;;28.60;74.40;;;;;;4858507;29;20033;-73
2021/07/25 11:03:26;;;;;;;11.00;6.28;;;28.50;74.50;;;;;;4858137;29;20441;-72
2021/07/25 11:06:13;;;;;;;10.88;7.35;;;28.60;74.70;;;;;;4859118;29;20089;-72
2021/07/25 11:08:43;;;;;;;12.10;7.30;;;28.60;74.30;;;;;;4858771;29;20037;-73
2021/07/25 11:11:29;;;;;;;10.77;7.20;;;28.50;74.00;;;;;;4858795;29;20436;-72
2021/07/25 11:13:55;;;;;;;10.15;7.07;;;28.40;74.90;;;;;;4858649;29;20098;-72
2021/07/25 11:16:30;;;;;;;9.77;6.90;;;28.50;75.70;;;;;;4858577;29;20129;-72
2021/07/25 11:19:08;;;;;;;12.20;6.68;;;28.50;75.70;;;;;;4858306;29;20080;-73
2021/07/25 11:21:44;;;;;;;8.52;6.93;;;28.50;74.70;;;;;;4841941;29;20038;-73
2021/07/25 11:24:18;;;;;;;11.43;6.47;;;28.40;75.10;;;;;;4858517;29;20021;-72
2021/07/25 11:26:59;;;;;;;10.43;7.25;;;28.20;75.70;;;;;;4858802;29;20029;-72
2021/07/25 11:29:30;;;;;;;12.45;6.72;;;28.00;76.00;;;;;;4861791;29;20352;-73
2021/07/25 11:31:56;;;;;;;10.20;6.78;;;28.00;76.00;;;;;;4862247;29;20117;-73
2021/07/25 11:34:31;;;;;;;10.00;6.93;;;27.80;76.20;;;;;;4862290;29;20124;-72
2021/07/25 11:37:07;;;;;;;9.95;6.70;;;27.80;76.70;;;;;;4862005;29;20037;-72
2021/07/25 11:39:33;;;;;;;12.60;7.20;;;27.70;77.10;;;;;;4862009;29;20130;-72
2021/07/25 11:42:03;;;;;;;10.18;7.00;;;27.60;77.70;;;;;;4862284;29;20456;-72
2021/07/25 11:44:30;;;;;;;8.70;6.47;;;27.50;77.40;;;;;;4861945;29;20568;-72
2021/07/25 11:47:00;;;;;;;8.77;7.00;;;27.40;77.70;;;;;;4845677;29;20113;-70
2021/07/25 11:49:30;;;;;;;9.95;7.03;;;27.50;78.20;;;;;;4861697;29;20048;-74
2021/07/25 11:52:03;;;;;;;8.48;6.53;;;27.50;78.00;;;;;;4861611;29;20126;-73
2021/07/25 11:54:34;;;;;;;10.30;7.22;;;27.40;78.10;;;;;;4845092;29;20040;-74
2021/07/25 11:57:09;;;;;;;10.48;7.32;;;27.50;78.60;;;;;;4862131;29;20032;-72
2021/07/25 11:59:39;;;;;;;10.40;7.20;;;27.50;79.10;;;;;;4845509;29;20163;-72
2021/07/25 12:02:09;;;;;;;10.20;7.20;;;27.60;79.00;;;;;;4861311;29;20363;-73
2021/07/25 12:04:36;;;;;;;10.30;6.80;;;27.50;78.40;;;;;;4861237;29;20110;-71
2021/07/25 12:07:11;;;;;;;9.13;7.00;;;27.60;79.40;;;;;;4861287;29;20499;-73
2021/07/25 12:09:37;;;;;;;12.93;7.40;;;27.70;79.60;;;;;;4861413;29;20038;-72
2021/07/25 12:12:13;;;;;;;10.82;7.38;;;27.80;80.10;;;;;;4861965;29;20097;-72
2021/07/25 12:14:41;;;;;;;9.77;5.95;;;27.90;79.20;;;;;;4861479;29;20480;-72
2021/07/25 12:17:08;;;;;;;10.02;6.20;;;28.00;76.50;;;;;;4861319;29;20383;-72
2021/07/25 12:19:36;;;;;;;8.20;5.73;;;27.90;74.90;;;;;;4844747;29;20033;-72
2021/07/25 12:22:20;;;;;;;9.15;5.90;;;28.00;76.40;;;;;;4861124;29;20491;-72
2021/07/25 12:24:49;;;;;;;11.68;6.30;;;28.20;75.50;;;;;;4861035;29;20041;-72
2021/07/25 12:27:29;;;;;;;10.38;5.97;;;28.20;73.40;;;;;;4861091;29;20029;-72
2021/07/25 12:30:08;;;;;;;6.78;5.30;;;28.20;72.40;;;;;;4845191;29;20069;-72
2021/07/25 12:32:35;;;;;;;12.27;6.10;;;28.30;73.60;;;;;;4844893;29;20041;-73
2021/07/25 12:35:11;;;;;;;8.95;6.32;;;28.40;73.80;;;;;;4844557;29;20038;-72
2021/07/25 12:37:53;;;;;;;9.55;6.35;;;28.40;74.70;;;;;;4861010;29;20126;-72